createdAt,value
2022-08-31T00:00:34.755Z,83.92
2022-08-31T00:03:20.705Z,83.89
2022-08-31T00:05:48.000Z,84.23
2022-08-31T00:08:15.772Z,84.23
2022-08-31T00:10:46.287Z,84.98
2022-08-31T00:13:14.113Z,84.64
2022-08-31T00:15:43.278Z,83.93
2022-08-31T00:18:10.798Z,84.61
2022-08-31T00:20:38.963Z,84.84
2022-08-31T00:23:12.886Z,85.44
2022-08-31T00:25:45.549Z,85.06
2022-08-31T00:28:15.141Z,85.52
2022-08-31T00:30:43.797Z,84.89
2022-08-31T00:33:12.590Z,85.54
2022-08-31T00:35:41.929Z,85.12
2022-08-31T00:38:12.109Z,85.91
2022-08-31T00:40:44.864Z,85.55
2022-08-31T00:43:54.057Z,86.60
2022-08-31T00:46:28.809Z,86.71
2022-08-31T00:49:10.650Z,87.05
2022-08-31T00:51:49.230Z,86.57
2022-08-31T00:54:29.701Z,85.91
2022-08-31T00:56:57.905Z,87.13
2022-08-31T00:59:27.481Z,87.60
2022-08-31T01:01:54.814Z,87.57
2022-08-31T01:04:22.270Z,87.08
2022-08-31T01:06:50.214Z,87.60
2022-08-31T01:09:19.242Z,87.26
2022-08-31T01:11:46.405Z,87.55
2022-08-31T01:14:14.221Z,87.64
2022-08-31T01:16:48.590Z,87.23
2022-08-31T01:20:24.178Z,87.54
2022-08-31T01:23:20.457Z,86.72
2022-08-31T01:25:51.043Z,86.64
2022-08-31T01:28:18.120Z,87.69
2022-08-31T01:31:08.975Z,86.93
2022-08-31T01:33:39.076Z,87.37
2022-08-31T01:36:11.165Z,86.73
2022-08-31T01:38:41.264Z,86.73
2022-08-31T01:41:08.756Z,87.46
2022-08-31T01:43:36.541Z,86.16
2022-08-31T01:46:10.788Z,87.86
2022-08-31T01:48:41.607Z,87.03
2022-08-31T01:51:12.549Z,87.18
2022-08-31T01:53:41.345Z,87.12
2022-08-31T01:56:24.768Z,87.49
2022-08-31T01:58:52.250Z,85.80
2022-08-31T02:01:33.420Z,86.33
2022-08-31T02:04:05.222Z,86.93
2022-08-31T02:06:33.076Z,85.83
2022-08-31T02:09:03.120Z,86.41
2022-08-31T02:11:30.122Z,86.93
2022-08-31T02:13:57.503Z,86.94
2022-08-31T02:16:25.031Z,87.51
2022-08-31T02:18:52.855Z,87.35
2022-08-31T02:21:20.339Z,88.01
2022-08-31T02:23:47.491Z,87.43
2022-08-31T02:26:14.582Z,88.12
2022-08-31T02:28:41.976Z,87.84
2022-08-31T02:31:09.101Z,87.69
2022-08-31T02:33:36.267Z,87.55
2022-08-31T02:36:04.406Z,87.81
2022-08-31T02:38:37.351Z,88.78
2022-08-31T02:41:06.434Z,88.18
2022-08-31T02:43:34.033Z,89.76
2022-08-31T02:46:02.083Z,88.50
2022-08-31T02:48:29.139Z,88.00
2022-08-31T02:51:07.290Z,89.68
2022-08-31T02:53:34.863Z,89.65
2022-08-31T02:56:02.846Z,88.59
2022-08-31T02:58:29.981Z,89.24
2022-08-31T03:00:56.978Z,89.33
2022-08-31T03:03:23.972Z,90.23
2022-08-31T03:05:51.237Z,89.66
2022-08-31T03:08:18.903Z,89.79
2022-08-31T03:10:46.221Z,90.21
2022-08-31T03:13:13.585Z,89.52
2022-08-31T03:15:44.921Z,89.69
2022-08-31T03:18:12.129Z,90.45
2022-08-31T03:20:39.379Z,90.64
2022-08-31T03:23:06.868Z,90.13
2022-08-31T03:25:33.986Z,90.05
2022-08-31T03:28:01.416Z,90.35
2022-08-31T03:30:29.721Z,89.93
2022-08-31T03:33:02.682Z,91.69
2022-08-31T03:35:30.980Z,91.37
2022-08-31T03:37:58.189Z,91.36
2022-08-31T03:40:25.306Z,91.61
2022-08-31T03:42:52.459Z,91.22
2022-08-31T03:45:20.368Z,90.68
2022-08-31T03:47:47.505Z,91.16
2022-08-31T03:50:16.109Z,91.30
2022-08-31T03:52:43.738Z,91.29
2022-08-31T03:55:12.752Z,91.15
2022-08-31T03:57:40.067Z,91.02
2022-08-31T04:00:09.206Z,90.90
2022-08-31T04:02:39.930Z,90.51
2022-08-31T04:05:08.407Z,90.88
2022-08-31T04:07:42.855Z,90.61
2022-08-31T04:10:14.517Z,91.10
2022-08-31T04:12:44.508Z,91.02
2022-08-31T04:15:12.449Z,91.21
2022-08-31T04:17:39.751Z,91.25
2022-08-31T04:20:07.957Z,91.80
2022-08-31T04:22:35.588Z,90.97
2022-08-31T04:25:06.383Z,90.50
2022-08-31T04:27:33.511Z,90.85
2022-08-31T04:30:02.353Z,91.26
2022-08-31T04:32:29.804Z,91.31
2022-08-31T04:34:57.201Z,91.58
2022-08-31T04:37:24.439Z,91.45
2022-08-31T04:39:52.411Z,91.83
2022-08-31T04:42:19.852Z,91.34
2022-08-31T04:44:47.210Z,91.09
2022-08-31T04:47:14.344Z,90.83
2022-08-31T04:49:41.557Z,90.24
2022-08-31T04:52:08.862Z,91.08
2022-08-31T04:54:35.940Z,91.38
2022-08-31T04:57:03.033Z,91.59
2022-08-31T04:59:30.072Z,90.14
2022-08-31T05:01:58.630Z,90.53
2022-08-31T05:04:29.385Z,90.39
2022-08-31T05:06:56.572Z,90.23
2022-08-31T05:09:24.432Z,90.34
2022-08-31T05:11:55.781Z,90.50
2022-08-31T05:14:24.533Z,90.79
2022-08-31T05:16:52.431Z,89.84
2022-08-31T05:19:21.054Z,89.13
2022-08-31T05:21:48.332Z,89.36
2022-08-31T05:24:22.435Z,89.19
2022-08-31T05:26:54.527Z,89.57
2022-08-31T05:29:25.990Z,88.54
2022-08-31T05:31:53.199Z,88.39
2022-08-31T05:34:22.858Z,87.92
2022-08-31T05:36:55.011Z,88.47
2022-08-31T05:39:22.579Z,87.96
2022-08-31T05:41:49.969Z,86.93
2022-08-31T05:44:21.221Z,86.55
2022-08-31T05:46:54.778Z,87.35
2022-08-31T05:49:32.305Z,86.74
2022-08-31T05:52:02.111Z,85.82
2022-08-31T05:54:29.089Z,85.81
2022-08-31T05:57:01.227Z,86.49
2022-08-31T05:59:31.071Z,86.26
2022-08-31T06:01:59.504Z,85.16
2022-08-31T06:04:28.769Z,85.71
2022-08-31T06:06:55.933Z,85.99
2022-08-31T06:09:23.033Z,85.13
2022-08-31T06:11:51.294Z,84.52
2022-08-31T06:14:18.737Z,84.51
2022-08-31T06:16:46.001Z,83.89
2022-08-31T06:19:13.801Z,83.94
2022-08-31T06:21:49.816Z,82.53
2022-08-31T06:24:19.650Z,82.02
2022-08-31T06:26:58.288Z,81.90
2022-08-31T06:29:29.566Z,80.17
2022-08-31T06:31:56.921Z,81.30
2022-08-31T06:34:32.367Z,80.49
2022-08-31T06:37:00.610Z,79.71
2022-08-31T06:39:27.863Z,80.68
2022-08-31T06:41:57.813Z,80.50
2022-08-31T06:44:25.104Z,79.56
2022-08-31T06:46:53.157Z,79.64
2022-08-31T06:49:20.783Z,77.95
2022-08-31T06:51:48.769Z,77.77
2022-08-31T06:54:29.580Z,77.33
2022-08-31T06:57:08.813Z,77.73
2022-08-31T06:59:41.670Z,77.32
2022-08-31T07:02:08.929Z,77.39
2022-08-31T07:04:39.379Z,76.71
2022-08-31T07:07:11.172Z,76.43
2022-08-31T07:09:41.161Z,76.61
2022-08-31T07:12:08.734Z,75.72
2022-08-31T07:14:36.465Z,75.43
2022-08-31T07:17:07.768Z,75.79
2022-08-31T07:19:35.313Z,74.58
2022-08-31T07:22:09.239Z,74.74
2022-08-31T07:24:40.403Z,74.02
2022-08-31T07:27:16.487Z,73.30
2022-08-31T07:29:47.890Z,73.96
2022-08-31T07:32:17.327Z,74.44
2022-08-31T07:34:44.434Z,73.90
2022-08-31T07:37:30.780Z,73.58
2022-08-31T07:40:23.037Z,73.98
2022-08-31T07:42:50.695Z,73.76
2022-08-31T07:45:29.441Z,73.02
2022-08-31T07:48:01.081Z,73.06
2022-08-31T07:50:31.703Z,73.17
2022-08-31T07:53:00.424Z,72.48
2022-08-31T07:55:29.102Z,71.73
2022-08-31T07:57:57.307Z,71.57
2022-08-31T08:00:33.151Z,72.05
2022-08-31T08:03:11.859Z,70.14
2022-08-31T08:05:41.723Z,68.73
2022-08-31T08:08:13.604Z,68.78
2022-08-31T08:10:46.712Z,67.15
2022-08-31T08:13:20.106Z,68.02
2022-08-31T08:15:48.581Z,67.73
2022-08-31T08:18:25.247Z,67.56
2022-08-31T08:20:52.804Z,66.24
2022-08-31T08:23:28.801Z,64.24
2022-08-31T08:26:03.681Z,64.03
2022-08-31T08:28:40.784Z,65.25
2022-08-31T08:31:19.226Z,65.08
2022-08-31T08:33:51.581Z,62.55
2022-08-31T08:36:20.726Z,61.50
2022-08-31T08:39:06.677Z,61.71
2022-08-31T08:41:38.042Z,62.40
2022-08-31T08:44:18.142Z,64.52
2022-08-31T08:46:53.849Z,60.37
2022-08-31T08:49:37.328Z,60.23
2022-08-31T08:52:26.948Z,61.35
2022-08-31T08:55:10.132Z,60.65
2022-08-31T08:57:46.334Z,61.36
2022-08-31T09:00:25.165Z,60.93
2022-08-31T09:03:33.331Z,61.13
2022-08-31T09:06:15.655Z,60.61
2022-08-31T09:13:09.055Z,57.66
2022-08-31T09:16:04.317Z,58.57
2022-08-31T09:21:53.750Z,55.37
2022-08-31T09:24:38.648Z,56.12
2022-08-31T09:27:19.273Z,54.00
2022-08-31T09:30:06.006Z,54.45
2022-08-31T09:32:39.003Z,54.73
2022-08-31T09:35:23.739Z,56.03
2022-08-31T09:38:41.331Z,53.16
2022-08-31T09:41:38.425Z,53.32
2022-08-31T09:44:43.669Z,52.96
2022-08-31T09:47:52.270Z,54.79
2022-08-31T09:51:01.002Z,54.18
2022-08-31T09:53:47.255Z,55.26
2022-08-31T09:56:19.829Z,51.99
2022-08-31T09:59:05.397Z,52.45
2022-08-31T10:01:47.362Z,51.83
2022-08-31T10:04:15.981Z,52.67
2022-08-31T10:07:06.156Z,50.26
2022-08-31T10:09:57.506Z,49.03
2022-08-31T10:12:42.625Z,49.04
2022-08-31T10:15:44.097Z,47.42
2022-08-31T10:18:56.038Z,47.88
2022-08-31T10:21:54.820Z,48.62
2022-08-31T10:24:46.236Z,46.61
2022-08-31T10:28:10.822Z,46.23
2022-08-31T10:31:30.207Z,47.30
2022-08-31T10:34:37.231Z,49.36
2022-08-31T10:37:20.529Z,47.07
2022-08-31T10:40:08.484Z,46.18
2022-08-31T10:42:59.189Z,47.99
2022-08-31T10:45:43.903Z,47.41
2022-08-31T10:48:13.080Z,49.34
2022-08-31T10:51:14.549Z,49.28
2022-08-31T10:58:02.406Z,46.91
2022-08-31T11:00:50.304Z,47.23
2022-08-31T11:04:08.800Z,46.57
2022-08-31T11:07:42.473Z,45.90
2022-08-31T11:10:47.297Z,44.80
2022-08-31T11:13:57.158Z,45.95
2022-08-31T11:17:11.995Z,43.54
2022-08-31T11:20:11.092Z,42.90
2022-08-31T11:23:19.638Z,43.85
2022-08-31T11:26:07.044Z,41.46
2022-08-31T11:29:02.978Z,41.23
2022-08-31T11:31:33.015Z,43.04
2022-08-31T11:34:22.748Z,39.80
2022-08-31T11:36:57.486Z,42.59
2022-08-31T11:39:31.041Z,43.42
2022-08-31T11:41:59.053Z,43.17
2022-08-31T11:44:39.492Z,42.81
2022-08-31T11:47:29.495Z,44.14
2022-08-31T11:50:39.133Z,39.95
2022-08-31T11:53:44.320Z,44.14
2022-08-31T11:56:15.285Z,41.08
2022-08-31T11:59:34.131Z,43.06
2022-08-31T12:02:24.107Z,40.92
2022-08-31T12:04:57.472Z,44.30
2022-08-31T12:07:36.090Z,40.79
2022-08-31T12:10:46.565Z,40.84
2022-08-31T12:14:04.041Z,36.64
2022-08-31T12:17:14.972Z,39.66
2022-08-31T12:20:01.063Z,36.89
2022-08-31T12:23:33.311Z,40.60
2022-08-31T12:27:07.578Z,40.66
2022-08-31T12:29:40.213Z,37.29
2022-08-31T12:32:36.071Z,38.28
2022-08-31T12:35:25.059Z,39.34
2022-08-31T12:38:16.495Z,39.04
2022-08-31T12:40:51.755Z,41.02
2022-08-31T12:43:49.192Z,38.36
2022-08-31T12:46:57.651Z,38.52
2022-08-31T12:50:11.101Z,38.09
2022-08-31T12:53:32.010Z,36.47
2022-08-31T12:56:31.530Z,39.32
2022-08-31T13:00:00.663Z,39.61
2022-08-31T13:02:33.039Z,38.61
2022-08-31T13:05:19.671Z,39.79
2022-08-31T13:07:49.838Z,41.01
2022-08-31T13:10:30.708Z,40.34
2022-08-31T13:13:22.511Z,39.99
2022-08-31T13:15:50.313Z,40.77
2022-08-31T13:18:34.455Z,39.04
2022-08-31T13:21:06.541Z,39.45
2022-08-31T13:23:42.934Z,40.96
2022-08-31T13:26:38.796Z,40.54
2022-08-31T13:29:23.668Z,40.32
2022-08-31T13:31:53.831Z,40.42
2022-08-31T13:34:21.228Z,39.56
2022-08-31T13:36:59.695Z,42.84
2022-08-31T13:39:39.473Z,41.72
2022-08-31T13:42:57.178Z,44.04
2022-08-31T13:45:38.622Z,40.61
2022-08-31T13:48:20.836Z,42.35
2022-08-31T13:50:58.168Z,42.68
2022-08-31T13:54:08.960Z,41.50
2022-08-31T13:56:59.132Z,39.65
2022-08-31T13:59:39.572Z,37.50
2022-08-31T14:02:30.945Z,37.10
2022-08-31T14:05:10.856Z,38.22
2022-08-31T14:07:45.811Z,37.63
2022-08-31T14:10:38.886Z,37.66
2022-08-31T14:13:35.009Z,37.64
2022-08-31T14:16:08.367Z,36.42
2022-08-31T14:18:47.594Z,37.38
2022-08-31T14:21:38.126Z,36.15
2022-08-31T14:24:12.010Z,36.57
2022-08-31T14:26:48.288Z,35.81
2022-08-31T14:29:19.095Z,36.45
2022-08-31T14:31:52.856Z,37.69
2022-08-31T14:34:30.431Z,37.96
2022-08-31T14:37:07.428Z,37.05
2022-08-31T14:39:46.107Z,37.01
2022-08-31T14:42:38.001Z,37.30
2022-08-31T14:45:18.867Z,35.73
2022-08-31T14:47:52.045Z,34.93
2022-08-31T14:50:25.422Z,35.56
2022-08-31T14:52:55.630Z,35.96
2022-08-31T14:55:31.669Z,37.67
2022-08-31T14:58:13.123Z,36.40
2022-08-31T15:00:53.207Z,36.53
2022-08-31T15:03:24.301Z,36.44
2022-08-31T15:05:51.523Z,37.16
2022-08-31T15:08:37.917Z,36.37
2022-08-31T15:11:11.310Z,37.78
2022-08-31T15:13:39.777Z,36.62
2022-08-31T15:16:08.336Z,37.96
2022-08-31T15:18:36.536Z,37.64
2022-08-31T15:21:11.061Z,40.06
2022-08-31T15:23:42.183Z,39.02
2022-08-31T15:27:08.200Z,39.44
2022-08-31T15:29:35.447Z,39.27
2022-08-31T15:32:46.464Z,40.21
2022-08-31T15:35:46.536Z,37.98
2022-08-31T15:38:14.463Z,37.86
2022-08-31T15:40:51.760Z,37.32
2022-08-31T15:43:22.742Z,39.25
2022-08-31T15:45:53.117Z,38.35
2022-08-31T15:48:39.586Z,38.30
2022-08-31T15:51:30.097Z,38.89
2022-08-31T15:54:21.340Z,40.53
2022-08-31T15:56:53.162Z,42.08
2022-08-31T15:59:55.404Z,43.31
2022-08-31T16:02:26.222Z,42.70
2022-08-31T16:05:17.794Z,44.47
2022-08-31T16:07:47.618Z,45.00
2022-08-31T16:10:19.379Z,44.86
2022-08-31T16:13:11.510Z,45.66
2022-08-31T16:15:48.414Z,46.28
2022-08-31T16:18:42.327Z,45.50
2022-08-31T16:21:09.434Z,45.85
2022-08-31T16:23:36.807Z,46.00
2022-08-31T16:29:12.914Z,46.77
2022-08-31T16:31:43.502Z,47.21
2022-08-31T16:34:13.510Z,47.08
2022-08-31T16:37:28.968Z,47.63
2022-08-31T16:39:56.547Z,47.94
2022-08-31T16:43:40.464Z,48.42
2022-08-31T16:47:59.146Z,49.30
2022-08-31T16:50:03.676Z,49.21
2022-08-31T16:53:01.534Z,50.11
2022-08-31T16:55:53.360Z,50.21
2022-08-31T16:59:09.559Z,50.50
2022-08-31T17:01:48.935Z,51.62
2022-08-31T17:04:50.855Z,51.58
2022-08-31T17:07:32.490Z,51.57
2022-08-31T17:10:10.863Z,51.70
2022-08-31T17:13:32.936Z,51.56
2022-08-31T17:16:48.425Z,51.25
2022-08-31T17:19:16.472Z,52.15
2022-08-31T17:21:50.657Z,52.08
2022-08-31T17:24:36.059Z,51.84
2022-08-31T17:27:16.911Z,52.13
2022-08-31T17:30:08.771Z,51.71
2022-08-31T17:35:54.003Z,51.82
2022-08-31T17:38:24.866Z,52.28
2022-08-31T17:41:17.493Z,52.55
2022-08-31T17:43:44.980Z,51.93
2022-08-31T17:46:17.145Z,52.57
2022-08-31T17:48:55.757Z,52.99
2022-08-31T17:51:41.025Z,53.33
2022-08-31T17:54:52.809Z,53.18
2022-08-31T17:57:25.044Z,53.32
2022-08-31T17:59:54.897Z,53.86
2022-08-31T18:02:34.676Z,52.96
2022-08-31T18:05:03.685Z,53.62
2022-08-31T18:07:37.285Z,52.91
2022-08-31T18:10:05.154Z,53.67
2022-08-31T18:12:32.461Z,53.61
2022-08-31T18:14:59.613Z,54.47
2022-08-31T18:17:27.238Z,54.41
2022-08-31T18:19:55.318Z,53.51
2022-08-31T18:22:22.329Z,54.28
2022-08-31T18:24:49.644Z,54.69
2022-08-31T18:27:16.670Z,54.11
2022-08-31T18:29:45.250Z,54.30
2022-08-31T18:32:12.755Z,54.48
2022-08-31T18:34:47.210Z,54.98
2022-08-31T18:37:20.988Z,55.39
2022-08-31T18:40:08.461Z,55.43
2022-08-31T18:42:57.193Z,56.37
2022-08-31T18:45:30.701Z,56.07
2022-08-31T18:48:35.187Z,55.15
2022-08-31T18:50:50.044Z,56.77
2022-08-31T18:53:27.656Z,56.49
2022-08-31T18:56:06.081Z,56.82
2022-08-31T18:58:33.476Z,56.09
2022-08-31T19:01:00.562Z,56.34
2022-08-31T19:03:29.055Z,57.09
2022-08-31T19:05:57.048Z,56.23
2022-08-31T19:08:29.169Z,56.71
2022-08-31T19:10:57.188Z,57.96
2022-08-31T19:13:29.614Z,57.82
2022-08-31T19:16:01.551Z,57.49
2022-08-31T19:18:30.998Z,57.63
2022-08-31T19:20:58.193Z,58.02
2022-08-31T19:23:26.248Z,58.55
2022-08-31T19:25:54.431Z,58.90
2022-08-31T19:28:22.004Z,58.07
2022-08-31T19:30:49.013Z,59.02
2022-08-31T19:33:16.530Z,58.91
2022-08-31T19:35:44.280Z,59.46
2022-08-31T19:38:11.976Z,59.46
2022-08-31T19:40:40.142Z,60.06
2022-08-31T19:45:55.586Z,60.31
2022-08-31T19:48:23.925Z,60.68
2022-08-31T19:50:52.385Z,60.76
2022-08-31T19:53:21.533Z,61.13
2022-08-31T19:55:53.393Z,61.63
2022-08-31T19:58:25.441Z,61.71
2022-08-31T20:01:00.777Z,61.68
2022-08-31T20:03:31.107Z,61.78
2022-08-31T20:05:59.744Z,62.04
2022-08-31T20:08:26.731Z,63.03
2022-08-31T20:10:53.795Z,62.73
2022-08-31T20:13:28.236Z,63.40
2022-08-31T20:15:56.171Z,63.61
2022-08-31T20:18:26.175Z,63.11
2022-08-31T20:20:55.026Z,63.60
2022-08-31T20:23:22.490Z,63.55
2022-08-31T20:25:54.906Z,62.82
2022-08-31T20:28:25.387Z,64.44
2022-08-31T20:31:00.197Z,64.73
2022-08-31T20:33:28.145Z,64.16
2022-08-31T20:35:58.392Z,64.49
2022-08-31T20:38:28.645Z,65.79
2022-08-31T20:40:56.027Z,64.24
2022-08-31T20:43:27.055Z,65.34
2022-08-31T20:45:54.233Z,65.74
2022-08-31T20:48:59.568Z,65.96
2022-08-31T20:51:26.599Z,66.03
2022-08-31T20:53:53.816Z,66.34
2022-08-31T20:56:26.143Z,67.31
2022-08-31T20:58:53.210Z,66.89
2022-08-31T21:01:21.619Z,66.85
2022-08-31T21:03:48.699Z,67.90
2022-08-31T21:06:15.690Z,67.24
2022-08-31T21:08:43.250Z,68.16
2022-08-31T21:11:17.138Z,67.14
2022-08-31T21:13:45.733Z,67.57
2022-08-31T21:16:14.909Z,67.51
2022-08-31T21:18:42.008Z,69.09
2022-08-31T21:21:17.692Z,68.75
2022-08-31T21:23:47.998Z,68.40
2022-08-31T21:26:26.422Z,68.22
2022-08-31T21:28:57.026Z,70.22
2022-08-31T21:31:28.914Z,70.27
2022-08-31T21:34:03.516Z,70.88
2022-08-31T21:36:33.850Z,70.19
2022-08-31T21:39:01.718Z,71.46
2022-08-31T21:41:29.709Z,71.31
2022-08-31T21:44:01.224Z,71.47
2022-08-31T21:46:29.752Z,70.70
2022-08-31T21:48:59.529Z,71.39
2022-08-31T21:51:38.082Z,71.67
2022-08-31T21:54:08.953Z,72.08
2022-08-31T21:56:46.080Z,73.67
2022-08-31T21:59:16.872Z,71.72
2022-08-31T22:01:45.185Z,72.55
2022-08-31T22:04:15.925Z,73.53
2022-08-31T22:06:43.612Z,72.88
2022-08-31T22:09:17.951Z,73.34
2022-08-31T22:11:51.551Z,73.76
2022-08-31T22:14:26.062Z,74.96
2022-08-31T22:16:57.108Z,73.99
2022-08-31T22:19:27.115Z,73.69
2022-08-31T22:22:01.466Z,74.16
2022-08-31T22:24:32.583Z,75.30
2022-08-31T22:27:08.307Z,74.03
2022-08-31T22:29:37.785Z,74.32
2022-08-31T22:32:15.147Z,73.67
2022-08-31T22:34:43.452Z,74.24
2022-08-31T22:37:13.954Z,75.13
2022-08-31T22:39:42.693Z,74.79
2022-08-31T22:42:11.865Z,73.76
2022-08-31T22:44:40.518Z,74.98
2022-08-31T22:47:07.580Z,74.16
2022-08-31T22:49:34.637Z,74.83
2022-08-31T22:52:02.165Z,74.40
2022-08-31T22:54:29.423Z,73.85
2022-08-31T22:56:56.842Z,74.64
2022-08-31T22:59:27.454Z,76.09
2022-08-31T23:02:03.614Z,73.99
2022-08-31T23:04:34.427Z,74.88
2022-08-31T23:07:04.240Z,76.06
2022-08-31T23:09:34.167Z,75.29
2022-08-31T23:12:04.951Z,74.98
2022-08-31T23:14:33.097Z,74.16
2022-08-31T23:17:09.028Z,75.63
2022-08-31T23:19:43.764Z,76.23
2022-08-31T23:22:15.259Z,74.92
2022-08-31T23:24:47.972Z,74.99
2022-08-31T23:27:19.749Z,74.54
2022-08-31T23:29:58.821Z,73.97
2022-08-31T23:32:29.057Z,75.04
2022-08-31T23:34:58.319Z,75.31
2022-08-31T23:37:27.357Z,74.68
2022-08-31T23:39:55.974Z,75.33
2022-08-31T23:42:26.258Z,75.87
2022-08-31T23:44:54.384Z,74.65
2022-08-31T23:47:29.251Z,75.02
2022-08-31T23:49:59.258Z,74.92
2022-08-31T23:52:29.806Z,74.23
2022-08-31T23:55:00.372Z,74.97
2022-08-31T23:57:32.735Z,75.20
